Time;durP1;ratioP1;P1;durP2;ratioP2;P2;SDS_P1;SDS_P2;PMS_P1;PMS_P2;Temp;Humidity;BMP_temperature;BMP_pressure;BME280_temperature;BME280_humidity;BME280_pressure;Samples;Min_cycle;Max_cycle;Signal;HPM_P1;HPM_P2
2022/06/17 00:00:58;;;;;;;1.65;1.15;;;;;;;;;;5021544;28;20029;-76
2022/06/17 00:03:28;;;;;;;0.60;0.60;;;;;;;;;;5014780;28;20052;-76
2022/06/17 00:05:55;;;;;;;1.73;0.77;;;;;;;;;;5023711;28;20446;-76
2022/06/17 00:08:41;;;;;;;0.55;0.55;;;;;;;;;;5029651;28;20033;-76
2022/06/17 00:11:13;;;;;;;0.93;0.45;;;;;;;;;;5033928;28;20105;-76
2022/06/17 00:13:38;;;;;;;0.82;0.68;;;;;;;;;;5029884;28;20097;-77
2022/06/17 00:16:09;;;;;;;1.08;1.02;;;;;;;;;;5034731;28;20117;-76
2022/06/17 00:18:34;;;;;;;1.25;0.43;;;;;;;;;;5023275;28;20039;-77
2022/06/17 00:21:00;;;;;;;3.22;0.73;;;;;;;;;;5026110;28;20702;-77
2022/06/17 00:23:27;;;;;;;0.30;0.30;;;;;;;;;;5034785;28;20041;-77
2022/06/17 00:25:52;;;;;;;2.63;1.30;;;;;;;;;;5018968;28;20037;-77
2022/06/17 00:28:20;;;;;;;0.30;0.30;;;;;;;;;;5028136;28;20048;-76
2022/06/17 00:30:47;;;;;;;0.50;0.50;;;;;;;;;;5041334;28;20035;-77
2022/06/17 00:33:15;;;;;;;0.90;0.70;;;;;;;;;;5038341;28;20043;-77
2022/06/17 00:35:45;;;;;;;0.30;0.30;;;;;;;;;;5034089;28;20025;-78
2022/06/17 00:38:14;;;;;;;1.40;0.40;;;;;;;;;;5063797;28;20025;-77
2022/06/17 00:40:40;;;;;;;0.47;0.40;;;;;;;;;;5023353;28;20029;-77
2022/06/17 00:43:10;;;;;;;0.47;0.47;;;;;;;;;;5037764;28;20395;-77
2022/06/17 00:45:42;;;;;;;0.80;0.65;;;;;;;;;;5035253;28;20082;-77
2022/06/17 00:48:18;;;;;;;0.55;0.43;;;;;;;;;;5025752;28;20016;-77
2022/06/17 00:50:44;;;;;;;0.35;0.28;;;;;;;;;;5039567;28;20176;-78
2022/06/17 00:53:17;;;;;;;0.70;0.70;;;;;;;;;;5018849;28;20104;-77
2022/06/17 00:56:04;;;;;;;1.60;0.55;;;;;;;;;;5032434;28;20037;-77
2022/06/17 00:58:53;;;;;;;0.68;0.50;;;;;;;;;;5034031;28;20017;-77
2022/06/17 01:01:19;;;;;;;0.38;0.38;;;;;;;;;;5014903;28;20033;-77
2022/06/17 01:03:49;;;;;;;0.20;0.20;;;;;;;;;;5008494;28;20096;-77
2022/06/17 01:06:19;;;;;;;0.63;0.63;;;;;;;;;;5032469;28;20036;-77
2022/06/17 01:11:40;;;;;;;0.98;0.50;;;;;;;;;;5032436;28;20060;-77
2022/06/17 01:14:07;;;;;;;0.25;0.25;;;;;;;;;;5036335;28;20032;-77
2022/06/17 01:16:37;;;;;;;5.40;1.42;;;;;;;;;;5035950;28;20108;-77
2022/06/17 01:19:46;;;;;;;1.30;0.52;;;;;;;;;;5031446;28;20667;-77
2022/06/17 01:22:11;;;;;;;0.73;0.60;;;;;;;;;;5040638;28;20340;-77
2022/06/17 01:24:37;;;;;;;6.80;1.05;;;;;;;;;;5027612;28;20095;-77
2022/06/17 01:27:02;;;;;;;0.80;0.52;;;;;;;;;;5024127;28;20042;-77
2022/06/17 01:29:33;;;;;;;0.20;0.20;;;;;;;;;;5023703;28;20018;-77
2022/06/17 01:32:01;;;;;;;1.20;0.90;;;;;;;;;;5033415;28;20025;-77
2022/06/17 01:34:26;;;;;;;3.38;0.70;;;;;;;;;;5019753;28;20025;-77
2022/06/17 01:36:53;;;;;;;0.60;0.60;;;;;;;;;;5020416;28;20034;-77
2022/06/17 01:39:19;;;;;;;4.00;0.98;;;;;;;;;;5015953;28;20037;-77
2022/06/17 01:41:48;;;;;;;1.33;1.23;;;;;;;;;;5015727;28;20500;-77
2022/06/17 01:44:16;;;;;;;0.40;0.40;;;;;;;;;;5032139;28;20425;-77
2022/06/17 01:46:43;;;;;;;1.67;1.02;;;;;;;;;;5014025;28;20033;-77
2022/06/17 01:49:21;;;;;;;0.68;0.68;;;;;;;;;;5021084;28;20022;-77
2022/06/17 01:51:54;;;;;;;0.80;0.35;;;;;;;;;;5028771;28;20034;-76
2022/06/17 01:54:30;;;;;;;1.02;0.73;;;;;;;;;;5020707;28;20510;-77
2022/06/17 01:56:58;;;;;;;0.57;0.57;;;;;;;;;;5025413;28;20047;-76
2022/06/17 01:59:46;;;;;;;1.38;0.82;;;;;;;;;;5018645;28;20466;-77
2022/06/17 02:02:15;;;;;;;0.75;0.50;;;;;;;;;;5035498;28;20040;-77
2022/06/17 02:04:44;;;;;;;1.27;0.90;;;;;;;;;;5024932;28;20025;-76
2022/06/17 02:07:17;;;;;;;1.05;0.82;;;;;;;;;;5027185;28;20084;-77
2022/06/17 02:09:45;;;;;;;1.92;0.88;;;;;;;;;;5047781;28;20450;-77
2022/06/17 02:12:16;;;;;;;0.95;0.57;;;;;;;;;;5033148;28;20120;-77
2022/06/17 02:14:45;;;;;;;0.50;0.50;;;;;;;;;;5038715;28;20458;-77
2022/06/17 02:17:12;;;;;;;2.00;1.90;;;;;;;;;;5028110;28;20332;-77
2022/06/17 02:19:42;;;;;;;1.55;1.00;;;;;;;;;;5036256;28;20029;-77
2022/06/17 02:22:14;;;;;;;6.32;0.65;;;;;;;;;;5046232;28;20032;-77
2022/06/17 02:24:40;;;;;;;;;;;;;;;;;;5015387;28;20527;-76
2022/06/17 02:27:10;;;;;;;1.80;1.55;;;;;;;;;;5024122;28;20003;-77
2022/06/17 02:29:40;;;;;;;0.75;0.75;;;;;;;;;;5022786;28;20498;-77
2022/06/17 02:32:07;;;;;;;1.65;0.57;;;;;;;;;;5021281;28;20451;-76
2022/06/17 02:34:35;;;;;;;0.73;0.63;;;;;;;;;;5029580;28;20038;-77
2022/06/17 02:37:06;;;;;;;1.92;1.45;;;;;;;;;;5019019;28;20034;-77
2022/06/17 02:39:33;;;;;;;0.85;0.75;;;;;;;;;;5030861;28;20029;-78
2022/06/17 02:41:58;;;;;;;0.75;0.57;;;;;;;;;;5018955;28;20133;-77
2022/06/17 02:44:31;;;;;;;0.63;0.50;;;;;;;;;;5034932;28;20473;-78
2022/06/17 02:46:58;;;;;;;0.85;0.85;;;;;;;;;;5016006;28;20352;-77
2022/06/17 02:49:33;;;;;;;7.90;0.68;;;;;;;;;;5031121;28;20464;-77
2022/06/17 02:51:59;;;;;;;1.30;0.52;;;;;;;;;;5038374;28;20454;-77
2022/06/17 02:54:33;;;;;;;0.52;0.52;;;;;;;;;;5049041;28;20056;-77
2022/06/17 02:57:01;;;;;;;2.03;1.08;;;;;;;;;;5031404;28;20405;-77
2022/06/17 02:59:34;;;;;;;0.93;0.85;;;;;;;;;;5050584;28;20026;-77
2022/06/17 03:02:11;;;;;;;2.78;1.10;;;;;;;;;;5023110;28;20044;-77
2022/06/17 03:04:37;;;;;;;2.60;0.68;;;;;;;;;;5021941;28;20029;-77
2022/06/17 03:07:07;;;;;;;1.20;1.10;;;;;;;;;;5015841;28;20120;-76
2022/06/17 03:09:36;;;;;;;0.60;0.60;;;;;;;;;;5039901;28;20163;-77
2022/06/17 03:12:07;;;;;;;0.60;0.60;;;;;;;;;;5003622;28;20038;-78
2022/06/17 03:14:44;;;;;;;0.60;0.60;;;;;;;;;;5049830;28;20030;-78
2022/06/17 03:17:14;;;;;;;0.75;0.70;;;;;;;;;;5036448;28;20045;-78
2022/06/17 03:19:40;;;;;;;1.42;1.02;;;;;;;;;;5045120;28;20021;-77
2022/06/17 03:22:07;;;;;;;0.88;0.47;;;;;;;;;;5024166;28;20363;-77
2022/06/17 03:24:45;;;;;;;0.40;0.40;;;;;;;;;;5020779;28;20481;-77
2022/06/17 03:27:16;;;;;;;0.80;0.60;;;;;;;;;;5037239;28;20370;-77
2022/06/17 03:29:44;;;;;;;2.22;0.90;;;;;;;;;;5044515;28;20029;-77
2022/06/17 03:32:32;;;;;;;0.22;0.22;;;;;;;;;;5033258;28;20033;-75
2022/06/17 03:34:57;;;;;;;1.25;0.50;;;;;;;;;;5031789;28;20045;-78
2022/06/17 03:37:39;;;;;;;0.20;0.20;;;;;;;;;;5033925;28;20097;-77
2022/06/17 03:40:18;;;;;;;1.15;1.02;;;;;;;;;;5036095;28;20031;-76
2022/06/17 03:42:53;;;;;;;0.90;0.52;;;;;;;;;;5043188;28;20501;-76
2022/06/17 03:45:24;;;;;;;0.40;0.40;;;;;;;;;;5026989;28;20107;-77
2022/06/17 03:47:57;;;;;;;0.57;0.57;;;;;;;;;;5049167;28;20026;-77
2022/06/17 03:50:37;;;;;;;0.85;0.85;;;;;;;;;;5055660;28;20035;-76
2022/06/17 03:53:36;;;;;;;0.63;0.63;;;;;;;;;;5019532;28;20366;-77
2022/06/17 03:56:18;;;;;;;0.35;0.35;;;;;;;;;;5032708;28;20045;-77
2022/06/17 03:58:43;;;;;;;0.75;0.68;;;;;;;;;;5041664;28;20033;-77
2022/06/17 04:01:27;;;;;;;0.85;0.77;;;;;;;;;;5035179;28;20029;-77
2022/06/17 04:04:00;;;;;;;0.70;0.70;;;;;;;;;;5036879;28;20029;-77
2022/06/17 04:06:34;;;;;;;1.50;1.10;;;;;;;;;;5036505;28;20355;-77
2022/06/17 04:09:02;;;;;;;0.70;0.70;;;;;;;;;;5026686;28;20443;-77
2022/06/17 04:11:32;;;;;;;0.80;0.47;;;;;;;;;;5024743;28;20332;-77
2022/06/17 04:14:02;;;;;;;1.13;0.70;;;;;;;;;;5023747;28;20343;-77
2022/06/17 04:16:39;;;;;;;1.58;1.30;;;;;;;;;;5051408;28;20382;-77
2022/06/17 04:19:23;;;;;;;0.50;0.50;;;;;;;;;;5042263;28;20051;-77
2022/06/17 04:21:50;;;;;;;0.70;0.60;;;;;;;;;;5055175;28;20025;-76
2022/06/17 04:24:19;;;;;;;10.93;0.90;;;;;;;;;;5039767;28;20342;-77
2022/06/17 04:26:50;;;;;;;1.30;1.20;;;;;;;;;;5041086;28;20041;-77
2022/06/17 04:29:24;;;;;;;0.52;0.45;;;;;;;;;;5044351;28;20021;-77
2022/06/17 04:32:00;;;;;;;1.15;0.90;;;;;;;;;;5039753;28;20041;-77
2022/06/17 04:34:25;;;;;;;0.82;0.75;;;;;;;;;;5023368;28;20469;-77
2022/06/17 04:37:00;;;;;;;0.63;0.45;;;;;;;;;;5015457;28;20061;-77
2022/06/17 04:39:37;;;;;;;0.93;0.80;;;;;;;;;;5044679;28;20109;-77
2022/06/17 04:42:10;;;;;;;1.55;0.40;;;;;;;;;;5026624;28;20032;-77
2022/06/17 04:44:38;;;;;;;1.75;0.75;;;;;;;;;;4999134;28;20076;-77
2022/06/17 04:47:11;;;;;;;2.08;1.13;;;;;;;;;;5021853;28;20030;-77
2022/06/17 04:49:40;;;;;;;0.47;0.47;;;;;;;;;;5033827;28;20117;-78
2022/06/17 04:52:11;;;;;;;0.20;0.20;;;;;;;;;;5031430;28;20025;-76
2022/06/17 04:54:40;;;;;;;2.00;0.70;;;;;;;;;;5079487;28;20052;-77
2022/06/17 04:57:05;;;;;;;0.28;0.22;;;;;;;;;;5021609;28;20099;-77
2022/06/17 04:59:34;;;;;;;0.50;0.50;;;;;;;;;;5037373;28;20037;-77
2022/06/17 05:02:02;;;;;;;0.98;0.80;;;;;;;;;;5029961;28;20079;-77
2022/06/17 05:04:27;;;;;;;0.85;0.47;;;;;;;;;;5014429;28;20406;-76
2022/06/17 05:06:53;;;;;;;0.70;0.70;;;;;;;;;;5014800;28;20033;-77
2022/06/17 05:09:24;;;;;;;0.75;0.30;;;;;;;;;;5022287;28;20068;-77
2022/06/17 05:12:14;;;;;;;0.38;0.38;;;;;;;;;;5031374;28;20018;-75
2022/06/17 05:14:51;;;;;;;0.32;0.32;;;;;;;;;;5011197;28;20049;-76
2022/06/17 05:17:17;;;;;;;0.52;0.47;;;;;;;;;;5015301;28;20026;-76
2022/06/17 05:19:45;;;;;;;0.55;0.40;;;;;;;;;;5034681;28;20082;-76
2022/06/17 05:22:22;;;;;;;1.13;0.82;;;;;;;;;;5022792;28;20021;-76
2022/06/17 05:24:47;;;;;;;0.32;0.32;;;;;;;;;;5029929;28;20025;-76
2022/06/17 05:27:13;;;;;;;1.15;0.77;;;;;;;;;;5030077;28;20024;-76
2022/06/17 05:29:38;;;;;;;0.75;0.43;;;;;;;;;;5040047;28;20355;-76
2022/06/17 05:32:04;;;;;;;0.70;0.57;;;;;;;;;;5044343;28;20427;-76
2022/06/17 05:34:29;;;;;;;2.17;0.60;;;;;;;;;;5058200;28;20033;-76
2022/06/17 05:37:02;;;;;;;0.88;0.22;;;;;;;;;;5034804;28;20036;-76
2022/06/17 05:39:30;;;;;;;0.43;0.43;;;;;;;;;;5029874;28;20041;-76
2022/06/17 05:41:55;;;;;;;0.73;0.73;;;;;;;;;;5033220;28;20113;-77
2022/06/17 05:44:22;;;;;;;0.30;0.30;;;;;;;;;;5031250;28;20109;-76
2022/06/17 05:46:50;;;;;;;1.65;0.57;;;;;;;;;;5028195;28;20116;-76
2022/06/17 05:49:16;;;;;;;1.20;0.25;;;;;;;;;;5014111;28;20151;-76
2022/06/17 05:51:43;;;;;;;0.93;0.57;;;;;;;;;;5025034;28;20109;-75
2022/06/17 05:54:09;;;;;;;0.68;0.60;;;;;;;;;;5047244;28;20474;-76
2022/06/17 05:56:34;;;;;;;0.50;0.45;;;;;;;;;;5044574;28;20049;-77
2022/06/17 05:58:59;;;;;;;1.35;0.30;;;;;;;;;;5035007;28;20351;-75
2022/06/17 06:01:25;;;;;;;0.40;0.32;;;;;;;;;;5036076;28;20025;-75
2022/06/17 06:03:53;;;;;;;1.55;0.85;;;;;;;;;;5047687;28;20064;-77
2022/06/17 06:06:18;;;;;;;2.95;1.85;;;;;;;;;;5040611;28;20022;-76
2022/06/17 06:08:44;;;;;;;0.93;0.40;;;;;;;;;;5036547;28;20497;-76
2022/06/17 06:11:11;;;;;;;0.70;0.50;;;;;;;;;;5044507;28;20446;-77
2022/06/17 06:13:39;;;;;;;0.22;0.22;;;;;;;;;;5033179;28;20080;-74
2022/06/17 06:16:04;;;;;;;0.50;0.30;;;;;;;;;;5049266;28;20041;-77
2022/06/17 06:18:38;;;;;;;0.77;0.55;;;;;;;;;;5043498;28;20036;-76
2022/06/17 06:21:06;;;;;;;0.50;0.40;;;;;;;;;;5028232;28;20454;-77
2022/06/17 06:23:36;;;;;;;0.30;0.20;;;;;;;;;;5036517;28;20108;-76
2022/06/17 06:26:02;;;;;;;0.20;0.20;;;;;;;;;;5035310;28;20408;-77
2022/06/17 06:28:28;;;;;;;0.17;0.17;;;;;;;;;;5026990;28;20082;-78
2022/06/17 06:31:00;;;;;;;0.10;0.10;;;;;;;;;;5029460;28;20042;-77
2022/06/17 06:33:25;;;;;;;0.50;0.32;;;;;;;;;;5034157;28;20033;-76
2022/06/17 06:35:50;;;;;;;0.20;0.20;;;;;;;;;;5028052;28;20033;-76
2022/06/17 06:38:16;;;;;;;0.73;0.65;;;;;;;;;;5036728;28;20022;-78
2022/06/17 06:40:41;;;;;;;0.63;0.40;;;;;;;;;;5032163;28;20099;-77
2022/06/17 06:43:17;;;;;;;1.05;0.95;;;;;;;;;;5046404;28;20045;-78
2022/06/17 06:45:48;;;;;;;0.20;0.20;;;;;;;;;;5021640;28;20215;-78
2022/06/17 06:48:16;;;;;;;0.60;0.60;;;;;;;;;;5033183;28;20390;-77
2022/06/17 06:50:41;;;;;;;1.02;0.15;;;;;;;;;;5035799;28;20472;-78
2022/06/17 06:53:07;;;;;;;0.47;0.43;;;;;;;;;;5038600;28;20033;-77
2022/06/17 06:55:35;;;;;;;0.70;0.45;;;;;;;;;;5027245;28;20051;-77
2022/06/17 06:58:03;;;;;;;0.20;0.20;;;;;;;;;;5040457;28;20033;-79
2022/06/17 07:00:32;;;;;;;0.32;0.32;;;;;;;;;;5031229;28;20033;-78
2022/06/17 07:02:57;;;;;;;0.15;0.15;;;;;;;;;;5016534;28;20036;-77
2022/06/17 07:05:23;;;;;;;0.28;0.20;;;;;;;;;;5034598;28;20025;-76
2022/06/17 07:07:48;;;;;;;2.13;0.47;;;;;;;;;;5033111;28;20038;-80
2022/06/17 07:10:25;;;;;;;0.28;0.28;;;;;;;;;;5036069;28;20444;-78
2022/06/17 07:12:51;;;;;;;0.10;0.10;;;;;;;;;;5031147;28;20033;-77
2022/06/17 07:15:18;;;;;;;1.05;0.73;;;;;;;;;;5049165;28;20032;-78
2022/06/17 07:18:04;;;;;;;0.20;0.20;;;;;;;;;;5035040;28;20034;-78
2022/06/17 07:20:36;;;;;;;0.32;0.25;;;;;;;;;;5050062;28;20030;-80
2022/06/17 07:23:16;;;;;;;1.67;1.08;;;;;;;;;;5019007;28;20029;-79
2022/06/17 07:25:45;;;;;;;0.47;0.30;;;;;;;;;;5034169;28;20037;-79
2022/06/17 07:28:13;;;;;;;0.50;0.50;;;;;;;;;;5032916;28;20048;-78
2022/06/17 07:30:41;;;;;;;0.52;0.43;;;;;;;;;;5047692;28;20021;-78
2022/06/17 07:33:09;;;;;;;0.80;0.68;;;;;;;;;;5045850;28;20113;-79
2022/06/17 07:35:35;;;;;;;0.90;0.63;;;;;;;;;;5030648;28;20030;-78
2022/06/17 07:40:47;;;;;;;2.00;1.08;;;;;;;;;;5041751;28;20470;-78
2022/06/17 07:43:14;;;;;;;1.30;0.50;;;;;;;;;;5029984;28;20136;-78
2022/06/17 07:45:42;;;;;;;0.45;0.45;;;;;;;;;;5037383;28;20025;-79
2022/06/17 07:48:10;;;;;;;0.55;0.20;;;;;;;;;;5009752;28;20574;-79
2022/06/17 07:50:37;;;;;;;0.28;0.28;;;;;;;;;;5071898;28;20029;-79
2022/06/17 07:53:02;;;;;;;0.60;0.40;;;;;;;;;;5035668;28;20056;-81
2022/06/17 07:55:31;;;;;;;2.95;0.47;;;;;;;;;;5033537;28;20068;-80
2022/06/17 07:57:56;;;;;;;0.45;0.45;;;;;;;;;;5039657;28;20034;-79
2022/06/17 08:00:30;;;;;;;1.08;0.65;;;;;;;;;;5045468;28;20044;-79
2022/06/17 08:02:55;;;;;;;0.20;0.20;;;;;;;;;;5063148;28;20510;-78
2022/06/17 08:05:21;;;;;;;0.70;0.50;;;;;;;;;;5029164;28;20029;-79
2022/06/17 08:07:51;;;;;;;0.52;0.52;;;;;;;;;;5039537;28;20030;-80
2022/06/17 08:10:18;;;;;;;0.95;0.85;;;;;;;;;;5033212;28;20082;-79
2022/06/17 08:12:44;;;;;;;0.25;0.25;;;;;;;;;;5038512;28;20099;-79
2022/06/17 08:15:12;;;;;;;0.22;0.22;;;;;;;;;;5050279;28;20506;-78
2022/06/17 08:17:41;;;;;;;1.08;0.47;;;;;;;;;;5036245;28;20025;-78
2022/06/17 08:20:21;;;;;;;0.38;0.38;;;;;;;;;;5033187;28;20036;-79
2022/06/17 08:23:15;;;;;;;0.20;0.20;;;;;;;;;;5033551;28;20093;-79
2022/06/17 08:25:41;;;;;;;0.45;0.22;;;;;;;;;;5035946;28;20103;-78
2022/06/17 08:28:08;;;;;;;0.75;0.63;;;;;;;;;;5036472;28;20025;-78
2022/06/17 08:30:44;;;;;;;0.20;0.20;;;;;;;;;;5050413;28;20059;-78
2022/06/17 08:33:11;;;;;;;0.50;0.47;;;;;;;;;;5045311;28;20331;-79
2022/06/17 08:35:45;;;;;;;0.30;0.30;;;;;;;;;;5041645;28;20052;-79
2022/06/17 08:38:17;;;;;;;0.85;0.55;;;;;;;;;;5041977;28;20455;-77
2022/06/17 08:40:55;;;;;;;0.60;0.60;;;;;;;;;;5015200;28;20033;-77
2022/06/17 08:43:39;;;;;;;0.50;0.50;;;;;;;;;;5028201;28;20100;-81
2022/06/17 08:46:23;;;;;;;0.47;0.43;;;;;;;;;;5035662;28;20087;-80
2022/06/17 08:49:33;;;;;;;0.65;0.65;;;;;;;;;;5034388;28;20096;-78
2022/06/17 08:52:18;;;;;;;0.57;0.40;;;;;;;;;;5024235;28;20167;-82
2022/06/17 08:55:24;;;;;;;0.65;0.32;;;;;;;;;;5034402;28;20067;-80
2022/06/17 08:58:36;;;;;;;0.47;0.45;;;;;;;;;;5034707;28;20068;-79
2022/06/17 09:01:55;;;;;;;0.57;0.57;;;;;;;;;;5014929;28;20018;-79
2022/06/17 09:04:57;;;;;;;0.30;0.30;;;;;;;;;;5012044;28;20121;-78
2022/06/17 09:07:35;;;;;;;0.15;0.15;;;;;;;;;;5043409;28;20025;-80
2022/06/17 09:10:19;;;;;;;0.45;0.45;;;;;;;;;;5038705;28;20033;-79
2022/06/17 09:13:28;;;;;;;0.63;0.60;;;;;;;;;;5034166;28;20021;-78
2022/06/17 09:16:07;;;;;;;0.20;0.20;;;;;;;;;;5035030;28;20478;-80
2022/06/17 09:18:39;;;;;;;1.13;0.17;;;;;;;;;;5033975;28;20384;-80
2022/06/17 09:21:21;;;;;;;0.68;0.50;;;;;;;;;;5029265;28;20017;-80
2022/06/17 09:23:47;;;;;;;1.70;0.75;;;;;;;;;;5026457;28;20040;-80
2022/06/17 09:26:23;;;;;;;0.30;0.25;;;;;;;;;;5037820;28;20021;-79
2022/06/17 09:28:55;;;;;;;1.00;0.82;;;;;;;;;;5027970;28;20108;-80
2022/06/17 09:31:36;;;;;;;1.08;0.98;;;;;;;;;;5034146;28;20021;-79
2022/06/17 09:34:21;;;;;;;1.45;0.50;;;;;;;;;;5040699;28;20354;-80
2022/06/17 09:37:05;;;;;;;0.65;0.30;;;;;;;;;;5033352;28;20040;-80
2022/06/17 09:39:41;;;;;;;0.30;0.30;;;;;;;;;;5033624;28;20025;-80
2022/06/17 09:42:15;;;;;;;1.65;0.60;;;;;;;;;;5037122;28;20036;-80
2022/06/17 09:44:49;;;;;;;0.30;0.30;;;;;;;;;;5033420;28;20103;-81
2022/06/17 09:47:24;;;;;;;0.43;0.43;;;;;;;;;;5041707;28;20455;-80
2022/06/17 09:49:58;;;;;;;1.50;0.77;;;;;;;;;;5042810;28;20065;-80
2022/06/17 09:52:31;;;;;;;0.57;0.57;;;;;;;;;;5034414;28;20051;-81
2022/06/17 09:55:21;;;;;;;2.63;0.55;;;;;;;;;;5034080;28;20091;-80
2022/06/17 09:58:08;;;;;;;0.32;0.32;;;;;;;;;;5032664;28;20025;-80
2022/06/17 10:00:41;;;;;;;0.30;0.30;;;;;;;;;;5021865;28;20124;-80
2022/06/17 10:03:25;;;;;;;0.30;0.30;;;;;;;;;;5020946;28;20017;-79
2022/06/17 10:06:12;;;;;;;0.80;0.52;;;;;;;;;;5034487;28;20394;-79
2022/06/17 10:08:43;;;;;;;0.65;0.60;;;;;;;;;;5032292;28;20117;-81
2022/06/17 10:12:06;;;;;;;1.33;0.70;;;;;;;;;;5034267;28;20091;-79
2022/06/17 10:14:52;;;;;;;0.20;0.20;;;;;;;;;;5010929;28;20362;-78
2022/06/17 10:20:28;;;;;;;0.47;0.32;;;;;;;;;;4993014;28;20102;-78
2022/06/17 10:23:41;;;;;;;1.33;0.55;;;;;;;;;;5016281;28;20042;-76
2022/06/17 10:26:06;;;;;;;0.22;0.22;;;;;;;;;;4979029;28;20463;-76
2022/06/17 10:29:05;;;;;;;0.47;0.30;;;;;;;;;;5008881;28;20042;-76
2022/06/17 10:31:38;;;;;;;0.65;0.65;;;;;;;;;;4999616;28;20340;-78
2022/06/17 10:34:14;;;;;;;0.68;0.68;;;;;;;;;;5011430;28;20143;-78
2022/06/17 10:36:40;;;;;;;1.65;0.70;;;;;;;;;;5013367;28;20056;-81
2022/06/17 10:39:06;;;;;;;0.50;0.50;;;;;;;;;;5012167;28;20060;-77
2022/06/17 10:41:32;;;;;;;0.20;0.20;;;;;;;;;;5030464;28;20116;-78
2022/06/17 10:44:00;;;;;;;0.40;0.40;;;;;;;;;;5015528;28;20085;-78
2022/06/17 10:46:32;;;;;;;0.20;0.20;;;;;;;;;;5015799;28;20104;-79
2022/06/17 10:49:12;;;;;;;0.30;0.30;;;;;;;;;;5033706;28;20035;-78
2022/06/17 10:51:40;;;;;;;0.35;0.30;;;;;;;;;;5036182;28;20025;-79
2022/06/17 10:54:19;;;;;;;0.77;0.77;;;;;;;;;;5036978;28;20466;-80
2022/06/17 10:57:09;;;;;;;0.15;0.15;;;;;;;;;;5042295;28;20054;-80
2022/06/17 10:59:43;;;;;;;0.70;0.55;;;;;;;;;;5016257;28;20026;-79
2022/06/17 11:02:36;;;;;;;0.45;0.45;;;;;;;;;;5019375;28;20037;-80
2022/06/17 11:05:06;;;;;;;0.45;0.40;;;;;;;;;;5016127;28;20454;-78
2022/06/17 11:07:33;;;;;;;0.38;0.38;;;;;;;;;;5051080;28;20426;-80
2022/06/17 11:10:02;;;;;;;0.55;0.50;;;;;;;;;;5056435;28;20086;-79
2022/06/17 11:12:38;;;;;;;0.82;0.82;;;;;;;;;;5054493;28;20074;-80
2022/06/17 11:15:27;;;;;;;0.30;0.30;;;;;;;;;;5042838;28;20033;-79
2022/06/17 11:17:57;;;;;;;0.47;0.40;;;;;;;;;;5052002;28;20064;-80
2022/06/17 11:20:28;;;;;;;0.52;0.50;;;;;;;;;;5031634;28;20024;-81
2022/06/17 11:22:57;;;;;;;0.30;0.28;;;;;;;;;;5051553;28;20041;-79
2022/06/17 11:25:38;;;;;;;0.15;0.15;;;;;;;;;;5056441;28;20108;-80
2022/06/17 11:28:11;;;;;;;0.30;0.28;;;;;;;;;;5052652;28;20044;-79
2022/06/17 11:30:37;;;;;;;0.65;0.65;;;;;;;;;;5042070;28;20026;-80
2022/06/17 11:33:22;;;;;;;0.20;0.20;;;;;;;;;;5040397;28;20454;-81
2022/06/17 11:35:58;;;;;;;0.52;0.52;;;;;;;;;;5052609;28;20111;-80
2022/06/17 11:38:24;;;;;;;0.55;0.55;;;;;;;;;;5055157;28;20488;-81
2022/06/17 11:40:52;;;;;;;1.05;0.17;;;;;;;;;;5044750;28;20096;-80
2022/06/17 11:43:47;;;;;;;0.30;0.30;;;;;;;;;;5034873;28;20026;-81
2022/06/17 11:46:22;;;;;;;2.10;1.13;;;;;;;;;;5032033;28;20072;-80
2022/06/17 11:49:05;;;;;;;0.40;0.40;;;;;;;;;;5063098;28;20033;-79
2022/06/17 11:51:42;;;;;;;0.77;0.38;;;;;;;;;;5032433;28;20451;-78
2022/06/17 11:54:31;;;;;;;0.20;0.20;;;;;;;;;;5036454;28;20340;-80
2022/06/17 11:57:12;;;;;;;0.30;0.30;;;;;;;;;;5039317;28;20046;-79
2022/06/17 11:59:42;;;;;;;0.47;0.40;;;;;;;;;;5037861;28;20025;-78
2022/06/17 12:02:08;;;;;;;1.45;0.95;;;;;;;;;;5036364;28;20025;-79
2022/06/17 12:04:54;;;;;;;0.30;0.30;;;;;;;;;;5052986;28;20063;-77
2022/06/17 12:07:38;;;;;;;0.10;0.10;;;;;;;;;;5022018;28;20029;-78
2022/06/17 12:10:09;;;;;;;0.88;0.45;;;;;;;;;;5055471;28;20033;-79
2022/06/17 12:12:34;;;;;;;0.38;0.38;;;;;;;;;;5055441;28;20444;-78
2022/06/17 12:15:09;;;;;;;0.50;0.50;;;;;;;;;;5054478;28;20025;-79
2022/06/17 12:17:37;;;;;;;0.43;0.43;;;;;;;;;;5051434;28;20082;-79
2022/06/17 12:20:17;;;;;;;0.30;0.30;;;;;;;;;;5052522;28;20032;-78
2022/06/17 12:22:47;;;;;;;0.30;0.30;;;;;;;;;;5039033;28;20051;-78
2022/06/17 12:25:17;;;;;;;0.38;0.38;;;;;;;;;;5035622;28;20021;-79
2022/06/17 12:27:52;;;;;;;1.15;0.60;;;;;;;;;;5031798;28;20030;-79
2022/06/17 12:30:28;;;;;;;0.60;0.50;;;;;;;;;;5017688;28;20055;-80
2022/06/17 12:33:11;;;;;;;0.80;0.40;;;;;;;;;;5038910;28;20041;-80
2022/06/17 12:35:44;;;;;;;0.55;0.55;;;;;;;;;;5032904;28;20037;-79
2022/06/17 12:38:31;;;;;;;0.30;0.30;;;;;;;;;;5056525;28;20048;-81
2022/06/17 12:41:38;;;;;;;0.63;0.20;;;;;;;;;;5030203;28;20026;-78
2022/06/17 12:44:04;;;;;;;0.57;0.57;;;;;;;;;;5029918;28;20037;-79
2022/06/17 12:46:48;;;;;;;1.20;0.60;;;;;;;;;;5026145;28;20141;-80
2022/06/17 12:55:07;;;;;;;0.95;0.77;;;;;;;;;;5031777;28;20084;-82
2022/06/17 12:57:42;;;;;;;0.30;0.30;;;;;;;;;;5031523;28;20033;-81
2022/06/17 13:00:25;;;;;;;0.68;0.40;;;;;;;;;;5041014;28;20030;-81
2022/06/17 13:03:08;;;;;;;0.45;0.45;;;;;;;;;;5029954;28;20048;-80
2022/06/17 13:05:53;;;;;;;0.57;0.50;;;;;;;;;;5045654;28;20568;-82
2022/06/17 13:11:45;;;;;;;0.30;0.30;;;;;;;;;;5032338;28;20040;-80
2022/06/17 13:14:23;;;;;;;0.35;0.35;;;;;;;;;;5032438;28;20021;-84
2022/06/17 13:17:23;;;;;;;0.47;0.47;;;;;;;;;;5041272;28;20366;-86
2022/06/17 13:20:04;;;;;;;1.05;0.60;;;;;;;;;;5012158;28;20079;-81
2022/06/17 13:22:38;;;;;;;0.17;0.17;;;;;;;;;;5029468;28;20050;-80
2022/06/17 13:25:25;;;;;;;0.55;0.20;;;;;;;;;;5061883;28;20041;-81
2022/06/17 13:27:56;;;;;;;0.28;0.28;;;;;;;;;;5026731;28;20116;-84
2022/06/17 13:30:30;;;;;;;0.40;0.40;;;;;;;;;;5039625;28;20462;-81
2022/06/17 13:32:59;;;;;;;0.35;0.30;;;;;;;;;;5032314;28;20029;-80
2022/06/17 13:35:29;;;;;;;0.45;0.30;;;;;;;;;;5033990;28;20029;-80
2022/06/17 13:38:02;;;;;;;0.88;0.55;;;;;;;;;;5038624;28;20025;-80
2022/06/17 13:40:40;;;;;;;0.57;0.45;;;;;;;;;;5034730;28;20025;-81
2022/06/17 13:43:12;;;;;;;0.38;0.20;;;;;;;;;;5041477;28;20540;-82
2022/06/17 13:45:49;;;;;;;0.20;0.20;;;;;;;;;;5046880;28;20468;-81
2022/06/17 13:48:30;;;;;;;0.30;0.30;;;;;;;;;;5028691;28;20128;-81
2022/06/17 13:51:22;;;;;;;0.20;0.20;;;;;;;;;;5063440;28;20021;-81
2022/06/17 13:54:10;;;;;;;0.55;0.45;;;;;;;;;;5040975;28;20052;-81
2022/06/17 13:57:12;;;;;;;0.40;0.40;;;;;;;;;;5030696;28;20113;-81
2022/06/17 13:59:38;;;;;;;0.28;0.28;;;;;;;;;;5042248;28;20083;-80
2022/06/17 14:02:20;;;;;;;0.40;0.40;;;;;;;;;;5038852;28;20033;-80
2022/06/17 14:05:00;;;;;;;0.38;0.38;;;;;;;;;;5039234;28;20029;-79
2022/06/17 14:07:53;;;;;;;1.10;0.65;;;;;;;;;;5049705;28;20369;-79
2022/06/17 14:10:47;;;;;;;0.30;0.30;;;;;;;;;;5034293;28;20143;-79
2022/06/17 14:13:19;;;;;;;0.38;0.32;;;;;;;;;;5025951;28;20041;-79
2022/06/17 14:16:13;;;;;;;0.20;0.20;;;;;;;;;;5040474;28;20446;-79
2022/06/17 14:18:43;;;;;;;0.28;0.28;;;;;;;;;;5036434;28;20041;-79
2022/06/17 14:21:22;;;;;;;0.77;0.50;;;;;;;;;;5053361;28;20025;-79
2022/06/17 14:23:49;;;;;;;0.50;0.50;;;;;;;;;;5055871;28;20044;-79
2022/06/17 14:26:39;;;;;;;0.17;0.17;;;;;;;;;;5055211;28;20029;-79
2022/06/17 14:29:13;;;;;;;11.40;1.08;;;;;;;;;;5049914;28;20465;-82
2022/06/17 14:31:41;;;;;;;0.20;0.10;;;;;;;;;;5030318;28;20048;-79
2022/06/17 14:34:14;;;;;;;0.50;0.50;;;;;;;;;;5035392;28;20107;-80
2022/06/17 14:36:46;;;;;;;0.10;0.10;;;;;;;;;;5042792;28;20029;-82
2022/06/17 14:39:39;;;;;;;1.75;0.40;;;;;;;;;;5054222;28;20029;-81
2022/06/17 14:42:19;;;;;;;0.50;0.40;;;;;;;;;;5047027;28;20087;-83
2022/06/17 14:44:51;;;;;;;0.30;0.30;;;;;;;;;;5034673;28;20025;-80
2022/06/17 14:47:31;;;;;;;0.20;0.20;;;;;;;;;;5044685;28;20036;-80
2022/06/17 14:50:20;;;;;;;0.28;0.28;;;;;;;;;;5043734;28;20446;-81
2022/06/17 14:52:54;;;;;;;0.70;0.57;;;;;;;;;;5039350;28;20025;-81
2022/06/17 14:55:25;;;;;;;0.80;0.57;;;;;;;;;;5046052;28;20020;-80
2022/06/17 14:58:11;;;;;;;0.87;0.40;;;;;;;;;;5039692;28;20136;-81
2022/06/17 15:00:40;;;;;;;0.20;0.20;;;;;;;;;;5016850;28;20132;-80
2022/06/17 15:03:15;;;;;;;0.10;0.10;;;;;;;;;;5035781;28;20044;-80
2022/06/17 15:05:40;;;;;;;0.65;0.47;;;;;;;;;;5038091;28;20029;-81
2022/06/17 15:08:14;;;;;;;0.20;0.20;;;;;;;;;;5051612;28;20032;-79
2022/06/17 15:10:58;;;;;;;0.45;0.45;;;;;;;;;;5028445;28;20026;-78
2022/06/17 15:16:16;;;;;;;0.30;0.30;;;;;;;;;;5041010;28;20040;-79
2022/06/17 15:18:41;;;;;;;2.03;0.95;;;;;;;;;;5052472;28;20111;-79
2022/06/17 15:21:35;;;;;;;0.10;0.10;;;;;;;;;;5052847;28;20101;-79
2022/06/17 15:24:40;;;;;;;0.20;0.20;;;;;;;;;;5059168;28;20451;-80
2022/06/17 15:27:24;;;;;;;0.90;0.50;;;;;;;;;;5035798;28;20487;-80
2022/06/17 15:29:59;;;;;;;0.20;0.20;;;;;;;;;;5042249;28;20033;-78
2022/06/17 15:32:27;;;;;;;0.20;0.20;;;;;;;;;;5040233;28;20377;-78
2022/06/17 15:34:52;;;;;;;0.25;0.25;;;;;;;;;;5053417;28;20056;-79
2022/06/17 15:37:32;;;;;;;0.30;0.30;;;;;;;;;;5048246;28;20059;-78
2022/06/17 15:40:18;;;;;;;0.40;0.40;;;;;;;;;;5050890;28;20021;-78
2022/06/17 15:42:55;;;;;;;0.55;0.30;;;;;;;;;;5032818;28;20596;-78
2022/06/17 15:45:20;;;;;;;1.85;0.80;;;;;;;;;;5036528;28;20025;-79